Time;durP1;ratioP1;P1;durP2;ratioP2;P2;SDS_P1;SDS_P2;PMS_P1;PMS_P2;Temp;Humidity;BMP_temperature;BMP_pressure;BME280_temperature;BME280_humidity;BME280_pressure;Samples;Min_cycle;Max_cycle;Signal;HPM_P1;HPM_P2
2023/07/11 00:01:48;;;;;;;5.20;2.30;;;19.50;99.90;;;;;;5076994;28;20481;-81
2023/07/11 00:04:14;;;;;;;4.53;2.40;;;19.50;99.90;;;;;;5077055;28;20401;-83
2023/07/11 00:06:39;;;;;;;5.57;2.50;;;19.40;99.90;;;;;;5077020;28;20422;-83
2023/07/11 00:09:05;;;;;;;5.10;2.60;;;19.30;99.90;;;;;;5069665;28;20821;-83
2023/07/11 00:11:31;;;;;;;5.32;2.60;;;19.30;99.90;;;;;;5095035;28;20403;-82
2023/07/11 00:13:59;;;;;;;5.25;2.50;;;19.50;99.90;;;;;;5043531;28;21055;-84
2023/07/11 00:16:25;;;;;;;4.85;2.45;;;19.50;99.90;;;;;;5075299;28;20792;-84
2023/07/11 00:18:50;;;;;;;5.27;2.50;;;19.30;99.90;;;;;;5078890;28;20487;-84
2023/07/11 00:21:16;;;;;;;4.93;2.20;;;19.40;99.90;;;;;;5059150;28;20401;-83
2023/07/11 00:23:42;;;;;;;5.70;2.50;;;19.50;99.90;;;;;;5071446;28;20451;-83
2023/07/11 00:26:08;;;;;;;9.02;2.65;;;19.40;99.90;;;;;;5074804;28;20404;-81
2023/07/11 00:28:33;;;;;;;5.60;2.50;;;19.50;99.90;;;;;;5091060;28;20420;-83
2023/07/11 00:31:00;;;;;;;7.38;2.30;;;19.20;99.90;;;;;;5065741;28;20417;-81
2023/07/11 00:33:26;;;;;;;4.70;2.20;;;19.30;99.90;;;;;;5076917;28;20402;-82
2023/07/11 00:35:53;;;;;;;5.77;2.70;;;19.40;99.90;;;;;;5075932;28;20780;-82
2023/07/11 00:38:20;;;;;;;5.80;2.70;;;19.20;99.90;;;;;;5079268;28;20425;-82
2023/07/11 00:40:48;;;;;;;4.97;2.80;;;19.30;99.90;;;;;;5089250;28;20450;-82
2023/07/11 00:43:16;;;;;;;5.93;2.70;;;19.20;99.90;;;;;;5077818;28;20472;-82
2023/07/11 00:46:03;;;;;;;7.97;2.83;;;19.20;99.90;;;;;;5072989;28;20809;-82
2023/07/11 00:48:31;;;;;;;5.97;2.77;;;19.00;99.90;;;;;;5077922;28;20435;-82
2023/07/11 00:50:58;;;;;;;6.25;3.00;;;19.00;99.90;;;;;;5078105;28;20421;-82
2023/07/11 00:53:26;;;;;;;4.30;2.60;;;18.90;99.90;;;;;;5075391;28;20478;-82
2023/07/11 00:55:51;;;;;;;4.57;2.42;;;18.90;99.90;;;;;;5058998;28;20964;-83
2023/07/11 00:58:19;;;;;;;6.27;2.43;;;18.90;99.90;;;;;;5079317;28;20505;-82
2023/07/11 01:00:46;;;;;;;6.53;2.95;;;18.70;99.90;;;;;;5088230;28;20857;-81
2023/07/11 01:03:11;;;;;;;5.53;2.70;;;18.70;99.90;;;;;;5078644;28;20418;-82
2023/07/11 01:05:39;;;;;;;6.97;2.63;;;18.70;99.90;;;;;;5075397;28;20413;-83
2023/07/11 01:08:06;;;;;;;5.97;2.85;;;18.60;99.90;;;;;;5081928;28;20424;-82
2023/07/11 01:10:31;;;;;;;6.10;3.35;;;18.90;99.90;;;;;;5061071;28;20435;-82
2023/07/11 01:13:00;;;;;;;5.50;3.00;;;18.90;99.90;;;;;;5081191;28;20942;-82
2023/07/11 01:15:26;;;;;;;8.57;2.83;;;19.00;99.90;;;;;;5075089;28;20406;-82
2023/07/11 01:17:52;;;;;;;4.70;2.63;;;18.90;99.90;;;;;;5078442;28;20449;-82
2023/07/11 01:20:17;;;;;;;6.38;2.80;;;19.00;99.90;;;;;;5089796;28;20416;-82
2023/07/11 01:22:43;;;;;;;5.63;2.85;;;18.80;99.90;;;;;;5066354;28;20438;-82
2023/07/11 01:25:14;;;;;;;6.68;2.80;;;19.10;99.90;;;;;;5080521;28;20477;-82
2023/07/11 01:27:45;;;;;;;6.00;2.90;;;18.90;99.90;;;;;;5093471;28;20900;-81
2023/07/11 01:30:13;;;;;;;5.32;3.05;;;19.10;99.90;;;;;;5095536;28;20404;-83
2023/07/11 01:32:39;;;;;;;4.63;2.80;;;19.30;99.90;;;;;;5076135;28;20484;-82
2023/07/11 01:35:05;;;;;;;6.88;3.03;;;19.20;99.90;;;;;;5092371;28;20491;-83
2023/07/11 01:37:32;;;;;;;7.07;3.22;;;19.10;99.90;;;;;;5091919;28;20398;-83
2023/07/11 01:39:57;;;;;;;5.70;2.90;;;19.30;99.90;;;;;;5078648;28;20752;-83
2023/07/11 01:42:25;;;;;;;6.73;3.00;;;18.90;99.90;;;;;;5095440;28;20411;-83
2023/07/11 01:44:51;;;;;;;8.43;3.03;;;19.20;99.90;;;;;;5077879;28;20404;-83
2023/07/11 01:47:17;;;;;;;5.72;3.10;;;19.00;99.90;;;;;;5076678;28;20444;-83
2023/07/11 01:49:42;;;;;;;6.63;3.20;;;19.20;99.90;;;;;;5077116;28;20405;-83
2023/07/11 01:52:20;;;;;;;5.82;3.00;;;18.90;99.90;;;;;;5058067;28;20428;-82
2023/07/11 01:54:47;;;;;;;6.65;3.17;;;18.90;99.90;;;;;;5092698;28;20569;-82
2023/07/11 01:57:13;;;;;;;7.50;3.17;;;18.80;99.90;;;;;;5093284;28;20915;-82
2023/07/11 01:59:39;;;;;;;6.60;3.30;;;18.70;99.90;;;;;;5091135;28;20425;-82
2023/07/11 02:02:06;;;;;;;6.20;2.90;;;18.60;99.90;;;;;;5094602;28;20403;-82
2023/07/11 02:04:33;;;;;;;5.75;3.03;;;18.60;99.90;;;;;;5090969;28;20402;-82
2023/07/11 02:06:59;;;;;;;6.43;3.20;;;18.50;99.90;;;;;;5059601;28;20418;-82
2023/07/11 02:09:25;;;;;;;9.88;3.13;;;18.60;99.90;;;;;;5060243;28;20899;-82
2023/07/11 02:11:51;;;;;;;6.73;3.13;;;18.40;99.90;;;;;;5094244;28;20405;-82
2023/07/11 02:14:19;;;;;;;5.90;2.97;;;18.40;99.90;;;;;;5073924;28;20477;-82
2023/07/11 02:16:47;;;;;;;6.03;3.00;;;18.60;99.90;;;;;;5108426;28;20400;-82
2023/07/11 02:19:14;;;;;;;11.05;3.33;;;18.50;99.90;;;;;;5093070;28;20432;-82
2023/07/11 02:21:41;;;;;;;7.07;3.22;;;18.20;99.90;;;;;;5073087;28;20404;-84
2023/07/11 02:24:10;;;;;;;7.78;2.90;;;18.40;99.90;;;;;;5098228;28;20491;-82
2023/07/11 02:26:36;;;;;;;6.00;2.80;;;18.30;99.90;;;;;;5070440;28;20426;-82
2023/07/11 02:29:03;;;;;;;7.55;2.95;;;18.40;99.90;;;;;;5074033;28;20409;-83
2023/07/11 02:31:31;;;;;;;6.45;2.85;;;18.00;99.90;;;;;;5076803;28;20425;-83
2023/07/11 02:33:57;;;;;;;5.30;2.83;;;18.30;99.90;;;;;;5074764;28;20430;-83
2023/07/11 02:36:23;;;;;;;7.10;2.60;;;18.00;99.90;;;;;;5074753;28;20904;-83
2023/07/11 02:38:49;;;;;;;6.68;2.90;;;17.80;99.90;;;;;;5075626;28;20427;-82
2023/07/11 02:41:14;;;;;;;6.47;2.95;;;18.00;99.90;;;;;;5067638;28;20420;-82
2023/07/11 02:43:40;;;;;;;6.70;2.70;;;17.70;99.90;;;;;;5075186;28;20422;-82
2023/07/11 02:46:06;;;;;;;6.55;2.53;;;17.70;99.90;;;;;;5094010;28;20947;-82
2023/07/11 02:48:32;;;;;;;5.20;2.28;;;17.60;99.90;;;;;;5086408;28;20408;-82
2023/07/11 02:50:57;;;;;;;6.30;2.47;;;17.60;99.90;;;;;;5067496;28;20410;-82
2023/07/11 02:53:23;;;;;;;6.97;2.80;;;17.60;99.90;;;;;;5078410;28;20570;-77
2023/07/11 02:55:52;;;;;;;5.57;2.60;;;17.60;99.90;;;;;;5060690;28;20919;-77
2023/07/11 02:58:18;;;;;;;4.63;2.70;;;17.60;99.90;;;;;;5096303;28;20511;-77
2023/07/11 03:00:48;;;;;;;7.23;2.83;;;17.60;99.90;;;;;;5064718;28;20511;-77
2023/07/11 03:03:14;;;;;;;5.97;2.75;;;17.50;99.90;;;;;;5079247;28;20402;-77
2023/07/11 03:05:44;;;;;;;5.65;3.10;;;17.60;99.90;;;;;;5081337;28;20473;-83
2023/07/11 03:08:10;;;;;;;6.07;2.60;;;17.60;99.90;;;;;;5097593;28;20400;-83
2023/07/11 03:10:35;;;;;;;6.10;2.80;;;17.50;99.90;;;;;;5086626;28;20412;-83
2023/07/11 03:13:01;;;;;;;6.97;2.85;;;17.60;99.90;;;;;;5082319;28;20407;-82
2023/07/11 03:15:27;;;;;;;4.95;2.65;;;17.50;99.90;;;;;;5095378;28;20901;-82
2023/07/11 03:17:53;;;;;;;7.50;2.97;;;;;;;;;;5077481;28;20425;-83
2023/07/11 03:20:18;;;;;;;7.47;3.10;;;17.50;99.90;;;;;;5053625;28;20414;-83
2023/07/11 03:22:44;;;;;;;6.27;2.70;;;17.30;99.90;;;;;;5066127;28;20418;-82
2023/07/11 03:25:10;;;;;;;9.55;3.28;;;17.10;99.90;;;;;;5077438;28;20475;-83
2023/07/11 03:27:35;;;;;;;7.53;3.17;;;17.40;99.90;;;;;;5077539;28;20402;-83
2023/07/11 03:30:01;;;;;;;5.23;3.03;;;17.20;99.90;;;;;;5077234;28;20418;-83
2023/07/11 03:32:27;;;;;;;4.50;2.97;;;17.40;99.90;;;;;;5088760;28;20465;-83
2023/07/11 03:34:52;;;;;;;7.18;3.30;;;17.20;99.90;;;;;;5066990;28;20390;-82
2023/07/11 03:37:18;;;;;;;6.57;3.35;;;17.30;99.90;;;;;;5077337;28;20409;-82
2023/07/11 03:39:44;;;;;;;10.03;3.60;;;17.30;99.90;;;;;;5093121;28;20992;-82
2023/07/11 03:42:09;;;;;;;7.68;3.35;;;17.50;99.90;;;;;;5078090;28;20428;-77
2023/07/11 03:44:35;;;;;;;8.70;3.67;;;17.70;99.90;;;;;;5059796;28;20406;-78
2023/07/11 03:47:01;;;;;;;9.23;3.38;;;17.60;99.90;;;;;;5060057;28;20409;-78
2023/07/11 03:49:26;;;;;;;7.90;3.80;;;17.40;99.90;;;;;;5077123;28;20424;-78
2023/07/11 03:51:52;;;;;;;7.35;3.70;;;17.50;99.90;;;;;;5063970;28;20420;-78
2023/07/11 03:54:18;;;;;;;9.25;4.10;;;17.70;99.90;;;;;;5079826;28;20407;-78
2023/07/11 03:56:43;;;;;;;13.43;3.87;;;17.40;99.90;;;;;;5059038;28;20485;-78
2023/07/11 03:59:09;;;;;;;9.97;3.90;;;17.50;99.90;;;;;;5076589;28;20490;-77
2023/07/11 04:01:35;;;;;;;11.07;4.38;;;17.50;99.90;;;;;;5043993;28;20414;-78
2023/07/11 04:04:01;;;;;;;9.13;4.93;;;17.40;99.90;;;;;;5096975;28;20400;-78
2023/07/11 04:06:27;;;;;;;10.20;4.20;;;17.60;99.90;;;;;;5078136;28;20457;-78
2023/07/11 04:08:52;;;;;;;7.35;4.00;;;17.60;99.90;;;;;;5057928;28;20433;-78
2023/07/11 04:11:18;;;;;;;10.00;4.50;;;17.60;99.90;;;;;;5076115;28;20413;-78
2023/07/11 04:13:44;;;;;;;7.80;4.47;;;17.60;99.90;;;;;;5077190;28;20428;-77
2023/07/11 04:16:10;;;;;;;8.65;4.40;;;17.20;99.90;;;;;;5059245;28;20409;-77
2023/07/11 04:18:35;;;;;;;9.75;4.60;;;17.20;99.90;;;;;;5061061;28;20459;-77
2023/07/11 04:21:01;;;;;;;6.80;4.32;;;17.20;99.90;;;;;;5087622;28;20416;-77
2023/07/11 04:23:27;;;;;;;11.33;4.43;;;17.20;99.90;;;;;;5090840;28;20427;-77
2023/07/11 04:25:54;;;;;;;10.75;4.78;;;;;;;;;;5091454;28;20511;-76
2023/07/11 04:28:20;;;;;;;9.30;4.43;;;17.20;99.90;;;;;;5058508;28;20444;-78
2023/07/11 04:30:45;;;;;;;8.93;4.90;;;17.10;99.90;;;;;;5078625;28;20868;-77
2023/07/11 04:33:11;;;;;;;13.90;5.70;;;17.30;99.90;;;;;;5051831;28;20525;-79
2023/07/11 04:35:37;;;;;;;10.55;4.82;;;17.30;99.90;;;;;;5058979;28;20541;-79
2023/07/11 04:38:03;;;;;;;11.02;5.10;;;17.00;99.90;;;;;;5051508;28;20517;-79
2023/07/11 04:40:28;;;;;;;10.48;5.15;;;17.00;99.90;;;;;;5082571;28;20419;-79
2023/07/11 04:42:58;;;;;;;10.40;5.47;;;17.00;99.90;;;;;;5071116;28;20872;-78
2023/07/11 04:45:24;;;;;;;8.68;5.05;;;;;;;;;;5065387;28;20469;-78
2023/07/11 04:47:49;;;;;;;11.57;5.68;;;17.00;99.90;;;;;;5082011;28;20927;-78
2023/07/11 04:50:15;;;;;;;8.95;5.25;;;17.00;99.90;;;;;;5083238;28;20449;-78
2023/07/11 04:52:42;;;;;;;11.05;5.70;;;17.10;99.90;;;;;;5081629;28;20435;-78
2023/07/11 04:55:09;;;;;;;13.48;5.75;;;17.00;99.90;;;;;;5078384;28;20418;-78
2023/07/11 04:57:35;;;;;;;10.93;5.30;;;16.50;99.90;;;;;;5086493;28;20507;-78
2023/07/11 05:00:00;;;;;;;15.40;6.00;;;17.30;99.90;;;;;;5057196;28;20420;-78
2023/07/11 05:02:26;;;;;;;15.07;5.57;;;;;;;;;;5064328;28;20413;-78
2023/07/11 05:04:52;;;;;;;12.93;5.50;;;17.50;99.90;;;;;;5069649;28;20535;-78
2023/07/11 05:07:18;;;;;;;15.40;5.90;;;17.80;99.90;;;;;;5052176;28;20413;-78
2023/07/11 05:09:44;;;;;;;11.40;5.70;;;17.80;99.90;;;;;;5054767;28;20416;-79
2023/07/11 05:12:10;;;;;;;11.45;5.43;;;17.50;99.90;;;;;;5049370;28;20418;-79
2023/07/11 05:14:37;;;;;;;13.43;5.90;;;17.60;99.90;;;;;;5074765;28;20900;-78
2023/07/11 05:17:03;;;;;;;13.18;6.05;;;17.80;99.90;;;;;;5069343;28;20424;-78
2023/07/11 05:19:28;;;;;;;14.35;5.82;;;18.10;99.90;;;;;;5059366;28;20434;-79
2023/07/11 05:21:54;;;;;;;12.20;6.07;;;17.90;99.90;;;;;;5073009;28;20424;-78
2023/07/11 05:24:20;;;;;;;10.00;5.80;;;18.20;99.90;;;;;;5087963;28;20404;-78
2023/07/11 05:26:46;;;;;;;9.68;6.32;;;18.30;99.90;;;;;;5059743;28;20776;-78
2023/07/11 05:29:11;;;;;;;12.60;6.33;;;18.20;99.90;;;;;;5045970;28;20422;-79
2023/07/11 05:31:37;;;;;;;11.30;6.10;;;18.40;99.90;;;;;;5069438;28;20439;-78
2023/07/11 05:34:03;;;;;;;11.73;6.20;;;18.40;99.90;;;;;;5057670;28;20502;-78
2023/07/11 05:36:35;;;;;;;11.52;6.10;;;18.40;99.90;;;;;;5087619;28;20426;-77
2023/07/11 05:39:06;;;;;;;12.95;6.82;;;18.40;99.90;;;;;;5056484;28;20449;-77
2023/07/11 05:41:34;;;;;;;10.38;6.07;;;18.40;99.90;;;;;;5069141;28;20769;-77
2023/07/11 05:44:00;;;;;;;16.23;6.70;;;18.60;99.90;;;;;;5092279;28;20809;-78
2023/07/11 05:46:27;;;;;;;11.40;6.13;;;19.30;99.90;;;;;;5056958;28;20417;-77
2023/07/11 05:48:54;;;;;;;14.25;6.57;;;18.90;99.90;;;;;;5087836;28;20457;-77
2023/07/11 05:51:21;;;;;;;10.65;6.57;;;18.90;99.90;;;;;;5085129;28;20450;-79
2023/07/11 05:53:50;;;;;;;12.85;6.97;;;18.80;99.90;;;;;;5101588;28;20933;-78
2023/07/11 05:56:17;;;;;;;13.88;6.82;;;18.90;99.90;;;;;;5082699;28;20862;-86
2023/07/11 05:58:43;;;;;;;10.45;6.70;;;19.00;99.90;;;;;;5093856;28;20414;-86
2023/07/11 06:01:13;;;;;;;10.03;6.50;;;19.50;99.90;;;;;;5097786;28;20420;-85
2023/07/11 06:03:45;;;;;;;11.73;6.43;;;19.20;99.90;;;;;;5083777;28;20771;-86
2023/07/11 06:06:12;;;;;;;10.43;6.47;;;19.30;99.90;;;;;;5058525;28;20445;-86
2023/07/11 06:08:38;;;;;;;10.93;6.57;;;19.70;99.90;;;;;;5074857;28;20474;-85
2023/07/11 06:11:05;;;;;;;11.88;6.63;;;19.40;99.90;;;;;;5077546;28;20414;-84
2023/07/11 06:13:33;;;;;;;12.40;6.30;;;19.60;99.90;;;;;;5077314;28;20475;-83
2023/07/11 06:16:05;;;;;;;13.27;6.63;;;19.50;99.90;;;;;;5073982;28;20418;-85
2023/07/11 06:18:36;;;;;;;18.52;6.95;;;19.90;99.90;;;;;;5075410;28;20497;-85
2023/07/11 06:21:04;;;;;;;13.98;6.22;;;20.10;99.90;;;;;;5074086;28;20418;-86
2023/07/11 06:23:29;;;;;;;12.80;6.55;;;20.30;99.90;;;;;;5079004;28;20497;-87
2023/07/11 06:25:55;;;;;;;10.57;5.87;;;20.50;99.90;;;;;;5076547;28;20823;-87
2023/07/11 06:28:21;;;;;;;10.30;5.77;;;20.50;99.90;;;;;;5075201;28;20443;-84
2023/07/11 06:30:47;;;;;;;11.23;6.20;;;22.50;99.90;;;;;;5066435;28;21191;-81
2023/07/11 06:33:14;;;;;;;11.10;5.80;;;20.40;99.90;;;;;;5077067;28;20432;-83
2023/07/11 06:35:41;;;;;;;12.73;5.90;;;20.50;99.90;;;;;;5087057;28;20414;-85
2023/07/11 06:38:10;;;;;;;10.55;5.95;;;20.50;99.90;;;;;;5076893;28;20454;-85
2023/07/11 06:40:35;;;;;;;9.05;5.50;;;20.70;99.90;;;;;;5093835;28;20416;-86
2023/07/11 06:43:01;;;;;;;10.40;5.55;;;20.70;99.90;;;;;;5057533;28;20762;-81
2023/07/11 06:45:27;;;;;;;8.73;4.87;;;20.70;99.90;;;;;;5071797;28;20432;-85
2023/07/11 06:47:53;;;;;;;12.17;5.40;;;20.90;99.90;;;;;;5061633;28;20398;-85
2023/07/11 06:50:18;;;;;;;8.95;5.15;;;21.10;99.90;;;;;;5078103;28;20419;-85
2023/07/11 06:52:45;;;;;;;8.68;4.97;;;21.20;99.90;;;;;;5068304;28;20416;-86
2023/07/11 06:55:12;;;;;;;9.55;4.50;;;21.40;99.90;;;;;;5081675;28;20955;-82
2023/07/11 06:57:38;;;;;;;9.17;5.27;;;21.40;99.90;;;;;;5069616;28;20452;-81
2023/07/11 07:00:06;;;;;;;13.10;5.20;;;21.40;99.90;;;;;;5059796;28;20412;-82
2023/07/11 07:02:32;;;;;;;8.68;5.10;;;21.60;99.90;;;;;;5066007;28;20902;-81
2023/07/11 07:04:58;;;;;;;8.60;4.78;;;21.70;99.90;;;;;;5077368;28;20419;-79
2023/07/11 07:07:24;;;;;;;8.25;4.50;;;22.10;99.90;;;;;;5065584;28;20474;-80
2023/07/11 07:09:50;;;;;;;7.93;4.83;;;22.30;99.90;;;;;;5077744;28;20446;-83
2023/07/11 07:12:16;;;;;;;8.13;4.95;;;21.60;99.90;;;;;;5091448;28;20438;-82
2023/07/11 07:14:42;;;;;;;8.68;4.80;;;22.00;99.90;;;;;;5081970;28;20522;-83
2023/07/11 07:17:07;;;;;;;9.50;4.53;;;22.20;99.90;;;;;;5054174;28;20416;-82
2023/07/11 07:19:33;;;;;;;8.45;4.53;;;22.30;99.90;;;;;;5082998;28;20422;-80
2023/07/11 07:21:59;;;;;;;12.05;4.85;;;22.40;99.90;;;;;;5049422;28;20428;-81
2023/07/11 07:24:27;;;;;;;7.53;4.47;;;22.50;99.90;;;;;;5074248;28;20475;-80
2023/07/11 07:26:56;;;;;;;7.47;4.05;;;22.50;99.90;;;;;;5050092;28;20416;-80
2023/07/11 07:29:24;;;;;;;8.93;4.88;;;22.60;99.90;;;;;;5079179;28;20513;-80
2023/07/11 07:31:50;;;;;;;10.10;4.40;;;22.50;99.90;;;;;;5073785;28;20928;-79
2023/07/11 07:34:15;;;;;;;6.60;4.00;;;22.60;99.90;;;;;;5075137;28;20462;-81
2023/07/11 07:36:41;;;;;;;9.32;4.15;;;22.70;99.90;;;;;;5058346;28;20455;-80
2023/07/11 07:39:07;;;;;;;8.70;3.80;;;22.70;99.90;;;;;;5087620;28;20472;-79
2023/07/11 07:41:32;;;;;;;8.40;3.83;;;22.80;99.90;;;;;;5060609;28;20455;-80
2023/07/11 07:43:58;;;;;;;6.47;3.53;;;22.90;99.90;;;;;;5082478;28;20855;-80
2023/07/11 07:46:24;;;;;;;6.33;3.50;;;23.00;99.90;;;;;;5062810;28;20410;-80
2023/07/11 07:48:50;;;;;;;10.70;4.10;;;22.90;99.90;;;;;;5107592;28;20412;-80
2023/07/11 07:51:18;;;;;;;7.70;3.90;;;23.10;99.90;;;;;;5081474;28;20422;-79
2023/07/11 07:53:44;;;;;;;8.02;3.80;;;23.10;99.90;;;;;;5078705;28;20414;-80
2023/07/11 07:56:19;;;;;;;8.48;4.25;;;23.10;99.90;;;;;;5084085;28;20788;-79
2023/07/11 07:58:45;;;;;;;6.15;3.70;;;23.30;99.90;;;;;;5076406;28;20791;-80
2023/07/11 08:01:13;;;;;;;7.63;4.00;;;23.50;99.90;;;;;;5087346;28;20925;-80
2023/07/11 08:03:39;;;;;;;8.93;4.33;;;23.50;99.90;;;;;;5078466;28;20765;-79
2023/07/11 08:06:06;;;;;;;11.10;4.20;;;23.40;99.90;;;;;;5055978;28;20421;-80
2023/07/11 08:08:32;;;;;;;9.20;4.15;;;23.60;99.90;;;;;;5085625;28;20434;-80
2023/07/11 08:11:02;;;;;;;11.20;3.92;;;23.70;99.90;;;;;;5084760;28;20493;-81
2023/07/11 08:13:29;;;;;;;8.32;3.78;;;23.70;99.90;;;;;;5078892;27;20403;-80
2023/07/11 08:15:54;;;;;;;7.40;3.88;;;23.80;99.90;;;;;;5108564;27;20421;-80
2023/07/11 08:18:20;;;;;;;6.33;3.30;;;23.80;99.90;;;;;;5113393;27;20505;-81
2023/07/11 08:20:46;;;;;;;7.65;3.50;;;24.00;99.90;;;;;;5081490;28;20570;-82
2023/07/11 08:23:11;;;;;;;6.82;3.63;;;24.00;99.90;;;;;;5078685;28;20415;-81
2023/07/11 08:25:37;;;;;;;8.50;3.90;;;23.90;99.90;;;;;;5079434;28;20428;-80
2023/07/11 08:28:04;;;;;;;9.65;3.97;;;23.90;99.90;;;;;;5070458;28;20496;-79
2023/07/11 08:30:39;;;;;;;10.50;3.80;;;23.90;99.90;;;;;;5077311;28;20975;-80
2023/07/11 08:33:05;;;;;;;9.48;3.70;;;24.20;99.90;;;;;;5089532;28;20420;-80
2023/07/11 08:35:31;;;;;;;9.90;3.70;;;24.20;99.90;;;;;;5079518;28;20425;-80
2023/07/11 08:37:57;;;;;;;7.15;3.42;;;24.30;99.90;;;;;;5089864;28;20430;-80
2023/07/11 08:40:29;;;;;;;10.40;3.20;;;24.50;99.90;;;;;;5059431;28;20445;-79
2023/07/11 08:42:55;;;;;;;8.32;3.33;;;24.90;99.90;;;;;;5061601;28;20419;-80
2023/07/11 08:45:50;;;;;;;6.35;2.85;;;24.80;99.90;;;;;;5081515;28;20429;-79
2023/07/11 08:48:42;;;;;;;9.03;3.20;;;25.00;99.90;;;;;;5075168;28;20421;-80
2023/07/11 08:51:23;;;;;;;5.68;2.92;;;25.20;99.90;;;;;;5075967;28;20414;-79
2023/07/11 08:54:01;;;;;;;7.88;3.10;;;25.40;99.90;;;;;;5082686;28;20929;-79
2023/07/11 08:56:39;;;;;;;6.55;2.97;;;25.70;99.90;;;;;;5078647;28;20396;-80
2023/07/11 08:59:08;;;;;;;7.90;2.72;;;25.90;99.90;;;;;;5090182;28;20429;-79
2023/07/11 09:01:53;;;;;;;10.40;2.92;;;26.30;99.90;;;;;;5075149;28;20825;-77
2023/07/11 09:04:22;;;;;;;8.20;3.05;;;26.70;99.90;;;;;;5075927;28;20689;-77
2023/07/11 09:07:20;;;;;;;7.67;3.00;;;26.30;99.90;;;;;;5058559;28;20428;-77
2023/07/11 09:09:46;;;;;;;5.88;2.70;;;26.90;99.90;;;;;;5053240;28;20504;-77
2023/07/11 09:12:52;;;;;;;7.10;2.75;;;26.30;99.90;;;;;;5057745;28;20559;-78
2023/07/11 09:15:29;;;;;;;6.07;2.53;;;26.50;99.90;;;;;;5058031;27;20406;-78
2023/07/11 09:18:17;;;;;;;9.77;2.67;;;26.80;99.90;;;;;;5094651;27;20398;-78
2023/07/11 09:20:57;;;;;;;6.00;2.30;;;27.10;99.90;;;;;;5074003;28;20417;-76
2023/07/11 09:23:43;;;;;;;4.95;2.40;;;26.90;99.90;;;;;;5081964;28;20876;-76
2023/07/11 09:26:19;;;;;;;5.32;2.20;;;27.70;99.90;;;;;;5062119;28;20444;-77
2023/07/11 09:28:45;;;;;;;5.97;2.30;;;28.00;99.90;;;;;;5082890;28;20447;-76
2023/07/11 09:31:18;;;;;;;8.27;2.80;;;27.90;99.90;;;;;;5080038;28;20424;-77
2023/07/11 09:33:53;;;;;;;7.27;2.60;;;28.10;99.90;;;;;;5113078;28;20384;-76
2023/07/11 09:36:27;;;;;;;8.38;2.50;;;27.90;99.90;;;;;;5077770;28;20442;-77
2023/07/11 09:39:16;;;;;;;6.13;2.53;;;28.10;99.90;;;;;;5084329;28;20431;-76
2023/07/11 09:41:54;;;;;;;6.07;2.30;;;28.10;99.90;;;;;;5082730;28;20423;-77
2023/07/11 09:44:22;;;;;;;10.55;2.75;;;27.90;99.10;;;;;;5090118;27;21609;-78
2023/07/11 09:46:48;;;;;;;6.57;2.28;;;29.80;99.90;;;;;;5103396;27;20435;-77
2023/07/11 09:49:35;;;;;;;7.53;2.43;;;28.20;99.90;;;;;;5095515;28;20422;-77
2023/07/11 09:52:02;;;;;;;5.83;2.20;;;28.30;99.90;;;;;;5079067;28;20735;-77
2023/07/11 09:54:45;;;;;;;7.40;2.65;;;28.10;99.10;;;;;;5057080;28;20482;-76
2023/07/11 09:57:12;;;;;;;4.78;2.30;;;28.00;98.40;;;;;;5107811;28;20419;-77
2023/07/11 09:59:42;;;;;;;5.07;2.50;;;28.30;99.60;;;;;;5098506;28;20527;-77
2023/07/11 10:02:15;;;;;;;6.90;2.90;;;28.40;99.60;;;;;;5105009;28;20476;-77
2023/07/11 10:04:42;;;;;;;6.60;2.70;;;27.90;99.70;;;;;;5086009;28;20421;-77
2023/07/11 10:07:15;;;;;;;8.10;2.38;;;28.10;99.80;;;;;;5074166;28;20961;-77
2023/07/11 10:09:49;;;;;;;6.90;2.77;;;28.20;99.60;;;;;;5092267;28;20445;-77
2023/07/11 10:12:17;;;;;;;6.43;2.40;;;27.80;99.20;;;;;;5088972;28;20415;-77
2023/07/11 10:14:53;;;;;;;8.25;2.60;;;28.00;99.30;;;;;;5095958;28;20432;-77
2023/07/11 10:17:20;;;;;;;6.43;2.47;;;28.10;99.60;;;;;;5099867;28;20737;-77
2023/07/11 10:19:50;;;;;;;6.30;2.22;;;28.40;99.20;;;;;;5096344;28;20470;-77
2023/07/11 10:22:26;;;;;;;9.32;2.70;;;28.10;98.80;;;;;;5079256;28;20424;-77
2023/07/11 10:25:00;;;;;;;9.10;2.70;;;28.20;98.80;;;;;;5102489;28;20436;-75
2023/07/11 10:27:30;;;;;;;6.83;2.53;;;28.00;98.50;;;;;;5080357;28;20904;-76
2023/07/11 10:29:59;;;;;;;6.13;2.70;;;28.50;98.40;;;;;;5080239;28;20452;-76
2023/07/11 10:32:33;;;;;;;8.17;2.80;;;28.50;98.70;;;;;;5079141;28;20934;-78
2023/07/11 10:35:03;;;;;;;7.47;2.50;;;28.70;98.90;;;;;;5083204;28;20834;-80
2023/07/11 10:38:04;;;;;;;7.85;3.03;;;28.90;99.20;;;;;;5082955;28;21185;-77
2023/07/11 10:40:36;;;;;;;6.40;2.67;;;29.20;98.10;;;;;;5081271;28;20563;-77
2023/07/11 10:43:23;;;;;;;8.83;3.00;;;29.30;98.80;;;;;;5080674;28;20416;-77
2023/07/11 10:45:53;;;;;;;6.95;2.67;;;29.40;97.70;;;;;;5061294;28;20433;-78
2023/07/11 10:48:34;;;;;;;7.78;2.72;;;29.10;97.90;;;;;;5092641;28;21023;-77
2023/07/11 10:51:21;;;;;;;6.70;2.70;;;29.00;97.50;;;;;;5075085;28;20431;-78
2023/07/11 10:53:55;;;;;;;9.43;2.70;;;29.20;97.90;;;;;;5057264;28;20418;-75
2023/07/11 10:56:25;;;;;;;7.25;2.67;;;28.90;98.20;;;;;;5057408;28;20406;-78
2023/07/11 10:58:52;;;;;;;7.75;2.60;;;29.50;98.00;;;;;;5073990;28;20483;-78
2023/07/11 11:01:36;;;;;;;6.60;2.50;;;29.20;98.00;;;;;;5074780;28;20406;-78
2023/07/11 11:04:32;;;;;;;8.80;2.90;;;29.10;98.20;;;;;;5074001;28;20919;-78
2023/07/11 11:07:27;;;;;;;7.25;2.60;;;29.40;97.80;;;;;;5078160;28;20510;-75
2023/07/11 11:10:17;;;;;;;6.55;2.65;;;29.40;97.00;;;;;;5094504;28;20416;-78
2023/07/11 11:13:18;;;;;;;5.68;2.53;;;29.30;96.00;;;;;;5068929;28;20425;-78
2023/07/11 11:15:52;;;;;;;9.80;3.00;;;29.10;95.60;;;;;;5073663;28;20423;-77
2023/07/11 11:18:20;;;;;;;6.15;3.05;;;29.30;97.40;;;;;;5097293;28;20432;-78
2023/07/11 11:21:12;;;;;;;8.82;2.90;;;29.30;97.30;;;;;;5097392;28;20465;-78
2023/07/11 11:23:57;;;;;;;8.48;3.05;;;29.20;98.30;;;;;;5078516;28;20412;-78
2023/07/11 11:26:51;;;;;;;9.10;3.08;;;29.40;97.80;;;;;;5079323;28;20451;-78
2023/07/11 11:29:35;;;;;;;7.47;2.70;;;29.40;97.30;;;;;;5082256;28;20421;-78
2023/07/11 11:32:24;;;;;;;6.85;2.78;;;29.40;97.20;;;;;;5077669;28;20781;-77
2023/07/11 11:35:07;;;;;;;7.43;3.07;;;29.60;97.40;;;;;;5095190;28;20437;-77
2023/07/11 11:38:08;;;;;;;9.63;2.75;;;29.60;97.10;;;;;;5077378;28;20920;-78
2023/07/11 11:40:37;;;;;;;6.22;2.38;;;29.80;96.60;;;;;;5057021;28;20418;-78
2023/07/11 11:43:11;;;;;;;10.00;2.88;;;29.90;96.80;;;;;;5084403;28;20771;-78
2023/07/11 11:45:37;;;;;;;7.43;2.90;;;30.00;96.90;;;;;;5096726;28;20420;-78
2023/07/11 11:48:04;;;;;;;7.68;2.60;;;29.50;96.30;;;;;;5097252;28;20408;-78
2023/07/11 11:50:31;;;;;;;6.18;2.55;;;29.70;96.00;;;;;;5080503;28;20797;-78
2023/07/11 11:53:15;;;;;;;9.57;2.85;;;29.90;96.40;;;;;;5086383;28;20422;-78
2023/07/11 11:55:52;;;;;;;5.93;2.80;;;30.20;96.40;;;;;;5072835;28;20417;-78
2023/07/11 11:58:18;;;;;;;8.07;2.97;;;30.40;95.40;;;;;;5075825;28;20817;-78
2023/07/11 12:00:54;;;;;;;6.75;3.05;;;30.50;96.00;;;;;;5075946;28;20418;-78
2023/07/11 12:03:32;;;;;;;9.93;3.10;;;30.60;96.10;;;;;;5083489;28;20547;-79
2023/07/11 12:06:00;;;;;;;5.90;3.00;;;30.50;95.80;;;;;;5089150;28;20537;-80
2023/07/11 12:08:32;;;;;;;6.38;2.95;;;30.50;95.90;;;;;;5087922;28;20420;-80
2023/07/11 12:11:02;;;;;;;8.55;3.00;;;30.50;95.40;;;;;;5092269;28;20454;-79
2023/07/11 12:13:30;;;;;;;8.10;3.17;;;30.70;95.50;;;;;;5075186;28;20512;-80
2023/07/11 12:16:00;;;;;;;6.27;3.10;;;30.50;95.60;;;;;;5084538;28;20754;-79
2023/07/11 12:18:38;;;;;;;7.53;3.20;;;30.40;96.00;;;;;;5074020;28;20420;-79
2023/07/11 12:21:13;;;;;;;8.03;3.10;;;30.40;95.50;;;;;;5059991;28;20497;-77
2023/07/11 12:23:51;;;;;;;8.38;3.05;;;30.30;95.90;;;;;;5081033;28;20475;-78
2023/07/11 12:26:24;;;;;;;9.73;3.45;;;30.30;96.50;;;;;;5069276;28;20413;-79
2023/07/11 12:29:11;;;;;;;6.80;3.20;;;30.50;96.20;;;;;;5090737;28;20427;-79
2023/07/11 12:31:37;;;;;;;6.13;3.17;;;30.30;95.60;;;;;;5089160;28;20419;-79
2023/07/11 12:34:11;;;;;;;8.52;3.42;;;30.60;96.20;;;;;;5083617;28;20426;-79
2023/07/11 12:36:57;;;;;;;6.53;3.30;;;30.60;96.00;;;;;;5094668;28;20767;-78
2023/07/11 12:39:45;;;;;;;6.82;3.30;;;30.60;95.20;;;;;;5075937;28;20504;-78
2023/07/11 12:42:30;;;;;;;9.05;3.35;;;30.70;95.50;;;;;;5086563;28;20417;-79
2023/07/11 12:44:55;;;;;;;9.50;3.30;;;30.70;95.70;;;;;;5060366;28;21006;-79
2023/07/11 12:47:23;;;;;;;8.77;2.90;;;30.80;95.20;;;;;;5074116;28;20506;-79
2023/07/11 12:49:50;;;;;;;7.18;2.70;;;30.80;94.90;;;;;;5055601;28;20452;-79
2023/07/11 12:52:19;;;;;;;7.35;2.97;;;31.00;94.70;;;;;;5076802;28;20946;-79
2023/07/11 12:54:45;;;;;;;8.57;2.90;;;30.80;94.50;;;;;;5080599;28;20999;-79
2023/07/11 12:57:16;;;;;;;5.80;2.83;;;30.70;94.90;;;;;;5078213;28;20507;-79
2023/07/11 12:59:42;;;;;;;8.85;3.20;;;30.60;94.80;;;;;;5061944;28;20427;-79